<?xml version="1.0" encoding="UTF-8" standalone="no" ?>
<gpx xmlns="http://www.topografix.com/GPX/1/1" xmlns:xsi="http://www.w3.org/2001/XMLSchema-instance" xsi:schemaLocation="http://www.topografix.com/GPX/1/1 http://www.topografix.com/GPX/1/1/gpx.xsd" version="1.1" creator="VisuGPX - https://www.visugpx.com">
  <metadata>
    <name>Sortie Moto</name>
  </metadata>
  <trk>
    <name><![CDATA[Journal actif: 2020-05-08 09:08]]></name>
    <trkseg>
      <trkpt lat="46.00164" lon="6.20023">
        <ele>610.57</ele>
        <time>2020-05-08T07:08:41Z</time>
      </trkpt>
      <trkpt lat="46.00179" lon="6.19998">
        <ele>574.53</ele>
        <time>2020-05-08T07:09:06Z</time>
      </trkpt>
      <trkpt lat="46.0019" lon="6.2003">
        <ele>573.56</ele>
        <time>2020-05-08T07:09:12Z</time>
      </trkpt>
      <trkpt lat="46.00189" lon="6.20032">
        <ele>573.08</ele>
        <time>2020-05-08T07:09:13Z</time>
      </trkpt>
      <trkpt lat="46.0019" lon="6.20029">
        <ele>572.6</ele>
        <time>2020-05-08T07:09:18Z</time>
      </trkpt>
      <trkpt lat="46.00192" lon="6.20025">
        <ele>572.6</ele>
        <time>2020-05-08T07:09:19Z</time>
      </trkpt>
      <trkpt lat="46.00194" lon="6.20019">
        <ele>572.12</ele>
        <time>2020-05-08T07:09:20Z</time>
      </trkpt>
      <trkpt lat="46.00198" lon="6.20009">
        <ele>572.12</ele>
        <time>2020-05-08T07:09:21Z</time>
      </trkpt>
      <trkpt lat="46.00203" lon="6.19996">
        <ele>572.12</ele>
        <time>2020-05-08T07:09:22Z</time>
      </trkpt>
      <trkpt lat="46.00246" lon="6.19883">
        <ele>570.68</ele>
        <time>2020-05-08T07:09:28Z</time>
      </trkpt>
      <trkpt lat="46.00272" lon="6.19811">
        <ele>570.2</ele>
        <time>2020-05-08T07:09:31Z</time>
      </trkpt>
      <trkpt lat="46.00279" lon="6.19788">
        <ele>569.72</ele>
        <time>2020-05-08T07:09:32Z</time>
      </trkpt>
      <trkpt lat="46.00282" lon="6.19762">
        <ele>569.72</ele>
        <time>2020-05-08T07:09:33Z</time>
      </trkpt>
      <trkpt lat="46.00284" lon="6.19736">
        <ele>569.24</ele>
        <time>2020-05-08T07:09:34Z</time>
      </trkpt>
      <trkpt lat="46.00287" lon="6.19709">
        <ele>568.76</ele>
        <time>2020-05-08T07:09:35Z</time>
      </trkpt>
      <trkpt lat="46.00287" lon="6.19681">
        <ele>568.28</ele>
        <time>2020-05-08T07:09:36Z</time>
      </trkpt>
      <trkpt lat="46.00296" lon="6.1948">
        <ele>567.32</ele>
        <time>2020-05-08T07:09:43Z</time>
      </trkpt>
      <trkpt lat="46.00345" lon="6.1922">
        <ele>566.83</ele>
        <time>2020-05-08T07:09:52Z</time>
      </trkpt>
      <trkpt lat="46.00385" lon="6.19029">
        <ele>564.43</ele>
        <time>2020-05-08T07:10:00Z</time>
      </trkpt>
      <trkpt lat="46.00399" lon="6.18961">
        <ele>560.11</ele>
        <time>2020-05-08T07:10:05Z</time>
      </trkpt>
      <trkpt lat="46.00401" lon="6.18955">
        <ele>559.14</ele>
        <time>2020-05-08T07:10:06Z</time>
      </trkpt>
      <trkpt lat="46.00396" lon="6.18952">
        <ele>558.66</ele>
        <time>2020-05-08T07:10:07Z</time>
      </trkpt>
      <trkpt lat="46.0039" lon="6.18949">
        <ele>557.7</ele>
        <time>2020-05-08T07:10:08Z</time>
      </trkpt>
      <trkpt lat="46.00384" lon="6.18946">
        <ele>556.74</ele>
        <time>2020-05-08T07:10:09Z</time>
      </trkpt>
      <trkpt lat="46.00379" lon="6.18942">
        <ele>556.26</ele>
        <time>2020-05-08T07:10:10Z</time>
      </trkpt>
      <trkpt lat="46.00372" lon="6.18935">
        <ele>555.3</ele>
        <time>2020-05-08T07:10:11Z</time>
      </trkpt>
      <trkpt lat="46.00366" lon="6.18929">
        <ele>554.82</ele>
        <time>2020-05-08T07:10:12Z</time>
      </trkpt>
      <trkpt lat="46.00361" lon="6.18922">
        <ele>554.82</ele>
        <time>2020-05-08T07:10:13Z</time>
      </trkpt>
      <trkpt lat="46.00358" lon="6.18908">
        <ele>554.82</ele>
        <time>2020-05-08T07:10:14Z</time>
      </trkpt>
      <trkpt lat="46.0036" lon="6.18898">
        <ele>554.82</ele>
        <time>2020-05-08T07:10:15Z</time>
      </trkpt>
      <trkpt lat="46.00362" lon="6.18887">
        <ele>554.82</ele>
        <time>2020-05-08T07:10:16Z</time>
      </trkpt>
      <trkpt lat="46.00372" lon="6.18881">
        <ele>554.82</ele>
        <time>2020-05-08T07:10:17Z</time>
      </trkpt>
      <trkpt lat="46.00379" lon="6.18877">
        <ele>554.82</ele>
        <time>2020-05-08T07:10:18Z</time>
      </trkpt>
      <trkpt lat="46.00387" lon="6.18879">
        <ele>555.3</ele>
        <time>2020-05-08T07:10:19Z</time>
      </trkpt>
      <trkpt lat="46.00396" lon="6.18883">
        <ele>555.78</ele>
        <time>2020-05-08T07:10:20Z</time>
      </trkpt>
      <trkpt lat="46.00407" lon="6.18888">
        <ele>556.26</ele>
        <time>2020-05-08T07:10:21Z</time>
      </trkpt>
      <trkpt lat="46.0042" lon="6.18895">
        <ele>557.22</ele>
        <time>2020-05-08T07:10:22Z</time>
      </trkpt>
      <trkpt lat="46.00435" lon="6.18908">
        <ele>557.7</ele>
        <time>2020-05-08T07:10:23Z</time>
      </trkpt>
      <trkpt lat="46.00504" lon="6.19011">
        <ele>562.99</ele>
        <time>2020-05-08T07:10:28Z</time>
      </trkpt>
      <trkpt lat="46.00599" lon="6.19241">
        <ele>579.33</ele>
        <time>2020-05-08T07:10:36Z</time>
      </trkpt>
      <trkpt lat="46.00664" lon="6.19429">
        <ele>593.27</ele>
        <time>2020-05-08T07:10:43Z</time>
      </trkpt>
      <trkpt lat="46.00691" lon="6.19495">
        <ele>598.56</ele>
        <time>2020-05-08T07:10:47Z</time>
      </trkpt>
      <trkpt lat="46.00694" lon="6.19509">
        <ele>599.04</ele>
        <time>2020-05-08T07:10:48Z</time>
      </trkpt>
      <trkpt lat="46.00693" lon="6.1952">
        <ele>600</ele>
        <time>2020-05-08T07:10:49Z</time>
      </trkpt>
      <trkpt lat="46.00691" lon="6.19532">
        <ele>600.48</ele>
        <time>2020-05-08T07:10:50Z</time>
      </trkpt>
      <trkpt lat="46.00683" lon="6.19541">
        <ele>600.96</ele>
        <time>2020-05-08T07:10:51Z</time>
      </trkpt>
      <trkpt lat="46.00673" lon="6.19537">
        <ele>601.44</ele>
        <time>2020-05-08T07:10:52Z</time>
      </trkpt>
      <trkpt lat="46.00664" lon="6.19529">
        <ele>601.92</ele>
        <time>2020-05-08T07:10:53Z</time>
      </trkpt>
      <trkpt lat="46.00659" lon="6.19518">
        <ele>602.88</ele>
        <time>2020-05-08T07:10:54Z</time>
      </trkpt>
      <trkpt lat="46.00653" lon="6.19504">
        <ele>603.36</ele>
        <time>2020-05-08T07:10:55Z</time>
      </trkpt>
      <trkpt lat="46.00645" lon="6.19486">
        <ele>604.33</ele>
        <time>2020-05-08T07:10:56Z</time>
      </trkpt>
      <trkpt lat="46.00635" lon="6.19465">
        <ele>605.29</ele>
        <time>2020-05-08T07:10:57Z</time>
      </trkpt>
      <trkpt lat="46.00601" lon="6.19395">
        <ele>608.17</ele>
        <time>2020-05-08T07:11:00Z</time>
      </trkpt>
      <trkpt lat="46.00589" lon="6.19371">
        <ele>609.13</ele>
        <time>2020-05-08T07:11:01Z</time>
      </trkpt>
      <trkpt lat="46.00551" lon="6.19322">
        <ele>611.06</ele>
        <time>2020-05-08T07:11:04Z</time>
      </trkpt>
      <trkpt lat="46.00539" lon="6.19313">
        <ele>611.54</ele>
        <time>2020-05-08T07:11:05Z</time>
      </trkpt>
      <trkpt lat="46.00526" lon="6.19308">
        <ele>612.5</ele>
        <time>2020-05-08T07:11:06Z</time>
      </trkpt>
      <trkpt lat="46.00514" lon="6.1931">
        <ele>612.98</ele>
        <time>2020-05-08T07:11:07Z</time>
      </trkpt>
      <trkpt lat="46.00502" lon="6.19317">
        <ele>613.94</ele>
        <time>2020-05-08T07:11:08Z</time>
      </trkpt>
      <trkpt lat="46.00493" lon="6.19328">
        <ele>614.42</ele>
        <time>2020-05-08T07:11:09Z</time>
      </trkpt>
      <trkpt lat="46.00486" lon="6.19343">
        <ele>615.38</ele>
        <time>2020-05-08T07:11:10Z</time>
      </trkpt>
      <trkpt lat="46.0048" lon="6.19359">
        <ele>615.86</ele>
        <time>2020-05-08T07:11:11Z</time>
      </trkpt>
      <trkpt lat="46.0048" lon="6.19378">
        <ele>616.34</ele>
        <time>2020-05-08T07:11:12Z</time>
      </trkpt>
      <trkpt lat="46.00485" lon="6.19396">
        <ele>616.82</ele>
        <time>2020-05-08T07:11:13Z</time>
      </trkpt>
      <trkpt lat="46.00492" lon="6.19415">
        <ele>617.78</ele>
        <time>2020-05-08T07:11:14Z</time>
      </trkpt>
      <trkpt lat="46.00502" lon="6.19434">
        <ele>618.75</ele>
        <time>2020-05-08T07:11:15Z</time>
      </trkpt>
      <trkpt lat="46.00514" lon="6.19454">
        <ele>619.23</ele>
        <time>2020-05-08T07:11:16Z</time>
      </trkpt>
      <trkpt lat="46.00527" lon="6.19474">
        <ele>620.67</ele>
        <time>2020-05-08T07:11:17Z</time>
      </trkpt>
      <trkpt lat="46.00545" lon="6.1949">
        <ele>621.63</ele>
        <time>2020-05-08T07:11:18Z</time>
      </trkpt>
      <trkpt lat="46.00563" lon="6.19507">
        <ele>622.59</ele>
        <time>2020-05-08T07:11:19Z</time>
      </trkpt>
      <trkpt lat="46.0058" lon="6.19525">
        <ele>623.55</ele>
        <time>2020-05-08T07:11:20Z</time>
      </trkpt>
      <trkpt lat="46.00596" lon="6.19544">
        <ele>624.51</ele>
        <time>2020-05-08T07:11:21Z</time>
      </trkpt>
      <trkpt lat="46.0061" lon="6.19567">
        <ele>625.47</ele>
        <time>2020-05-08T07:11:22Z</time>
      </trkpt>
      <trkpt lat="46.00621" lon="6.19595">
        <ele>626.44</ele>
        <time>2020-05-08T07:11:23Z</time>
      </trkpt>
      <trkpt lat="46.00633" lon="6.19624">
        <ele>627.4</ele>
        <time>2020-05-08T07:11:24Z</time>
      </trkpt>
      <trkpt lat="46.00693" lon="6.19788">
        <ele>632.2</ele>
        <time>2020-05-08T07:11:29Z</time>
      </trkpt>
      <trkpt lat="46.00703" lon="6.19824">
        <ele>633.17</ele>
        <time>2020-05-08T07:11:30Z</time>
      </trkpt>
      <trkpt lat="46.00761" lon="6.20103">
        <ele>642.78</ele>
        <time>2020-05-08T07:11:38Z</time>
      </trkpt>
      <trkpt lat="46.00845" lon="6.20417">
        <ele>656.24</ele>
        <time>2020-05-08T07:11:49Z</time>
      </trkpt>
      <trkpt lat="46.00883" lon="6.20532">
        <ele>658.64</ele>
        <time>2020-05-08T07:11:54Z</time>
      </trkpt>
      <trkpt lat="46.00896" lon="6.20552">
        <ele>659.12</ele>
        <time>2020-05-08T07:11:55Z</time>
      </trkpt>
      <trkpt lat="46.0091" lon="6.20571">
        <ele>659.6</ele>
        <time>2020-05-08T07:11:56Z</time>
      </trkpt>
      <trkpt lat="46.01053" lon="6.20741">
        <ele>661.04</ele>
        <time>2020-05-08T07:12:04Z</time>
      </trkpt>
      <trkpt lat="46.01259" lon="6.2099">
        <ele>665.85</ele>
        <time>2020-05-08T07:12:14Z</time>
      </trkpt>
      <trkpt lat="46.01396" lon="6.21179">
        <ele>670.66</ele>
        <time>2020-05-08T07:12:21Z</time>
      </trkpt>
      <trkpt lat="46.01432" lon="6.21235">
        <ele>672.1</ele>
        <time>2020-05-08T07:12:23Z</time>
      </trkpt>
      <trkpt lat="46.01454" lon="6.21258">
        <ele>673.06</ele>
        <time>2020-05-08T07:12:24Z</time>
      </trkpt>
      <trkpt lat="46.0161" lon="6.21414">
        <ele>678.35</ele>
        <time>2020-05-08T07:12:31Z</time>
      </trkpt>
      <trkpt lat="46.01694" lon="6.21508">
        <ele>680.75</ele>
        <time>2020-05-08T07:12:35Z</time>
      </trkpt>
      <trkpt lat="46.0171" lon="6.21538">
        <ele>681.23</ele>
        <time>2020-05-08T07:12:36Z</time>
      </trkpt>
      <trkpt lat="46.01725" lon="6.21568">
        <ele>682.19</ele>
        <time>2020-05-08T07:12:37Z</time>
      </trkpt>
      <trkpt lat="46.01847" lon="6.21868">
        <ele>683.63</ele>
        <time>2020-05-08T07:12:46Z</time>
      </trkpt>
      <trkpt lat="46.01926" lon="6.22138">
        <ele>683.63</ele>
        <time>2020-05-08T07:12:53Z</time>
      </trkpt>
      <trkpt lat="46.01987" lon="6.22528">
        <ele>689.88</ele>
        <time>2020-05-08T07:13:02Z</time>
      </trkpt>
      <trkpt lat="46.02039" lon="6.22888">
        <ele>697.57</ele>
        <time>2020-05-08T07:13:11Z</time>
      </trkpt>
      <trkpt lat="46.02045" lon="6.22921">
        <ele>699.02</ele>
        <time>2020-05-08T07:13:12Z</time>
      </trkpt>
      <trkpt lat="46.02055" lon="6.22952">
        <ele>699.98</ele>
        <time>2020-05-08T07:13:13Z</time>
      </trkpt>
      <trkpt lat="46.02065" lon="6.22983">
        <ele>700.46</ele>
        <time>2020-05-08T07:13:14Z</time>
      </trkpt>
      <trkpt lat="46.02079" lon="6.23009">
        <ele>701.42</ele>
        <time>2020-05-08T07:13:15Z</time>
      </trkpt>
      <trkpt lat="46.02094" lon="6.23031">
        <ele>701.9</ele>
        <time>2020-05-08T07:13:16Z</time>
      </trkpt>
      <trkpt lat="46.0211" lon="6.23051">
        <ele>702.86</ele>
        <time>2020-05-08T07:13:17Z</time>
      </trkpt>
      <trkpt lat="46.02125" lon="6.23069">
        <ele>703.34</ele>
        <time>2020-05-08T07:13:18Z</time>
      </trkpt>
      <trkpt lat="46.0215" lon="6.23105">
        <ele>704.3</ele>
        <time>2020-05-08T07:13:20Z</time>
      </trkpt>
      <trkpt lat="46.02244" lon="6.23289">
        <ele>706.71</ele>
        <time>2020-05-08T07:13:30Z</time>
      </trkpt>
      <trkpt lat="46.02291" lon="6.23377">
        <ele>709.59</ele>
        <time>2020-05-08T07:13:35Z</time>
      </trkpt>
      <trkpt lat="46.02304" lon="6.23389">
        <ele>710.07</ele>
        <time>2020-05-08T07:13:36Z</time>
      </trkpt>
      <trkpt lat="46.02319" lon="6.23403">
        <ele>710.55</ele>
        <time>2020-05-08T07:13:37Z</time>
      </trkpt>
      <trkpt lat="46.02405" lon="6.23482">
        <ele>715.84</ele>
        <time>2020-05-08T07:13:42Z</time>
      </trkpt>
      <trkpt lat="46.02419" lon="6.23505">
        <ele>716.8</ele>
        <time>2020-05-08T07:13:43Z</time>
      </trkpt>
      <trkpt lat="46.02431" lon="6.23529">
        <ele>717.76</ele>
        <time>2020-05-08T07:13:44Z</time>
      </trkpt>
      <trkpt lat="46.02522" lon="6.23693">
        <ele>724.01</ele>
        <time>2020-05-08T07:13:51Z</time>
      </trkpt>
      <trkpt lat="46.02539" lon="6.23711">
        <ele>724.97</ele>
        <time>2020-05-08T07:13:52Z</time>
      </trkpt>
      <trkpt lat="46.02557" lon="6.23726">
        <ele>725.93</ele>
        <time>2020-05-08T07:13:53Z</time>
      </trkpt>
      <trkpt lat="46.02576" lon="6.23737">
        <ele>726.89</ele>
        <time>2020-05-08T07:13:54Z</time>
      </trkpt>
      <trkpt lat="46.02596" lon="6.23746">
        <ele>727.37</ele>
        <time>2020-05-08T07:13:55Z</time>
      </trkpt>
      <trkpt lat="46.02617" lon="6.23753">
        <ele>727.86</ele>
        <time>2020-05-08T07:13:56Z</time>
      </trkpt>
      <trkpt lat="46.02638" lon="6.23758">
        <ele>728.82</ele>
        <time>2020-05-08T07:13:57Z</time>
      </trkpt>
      <trkpt lat="46.02859" lon="6.23801">
        <ele>738.43</ele>
        <time>2020-05-08T07:14:07Z</time>
      </trkpt>
      <trkpt lat="46.03023" lon="6.23882">
        <ele>742.76</ele>
        <time>2020-05-08T07:14:15Z</time>
      </trkpt>
      <trkpt lat="46.03125" lon="6.23986">
        <ele>744.2</ele>
        <time>2020-05-08T07:14:20Z</time>
      </trkpt>
      <trkpt lat="46.03239" lon="6.24119">
        <ele>747.56</ele>
        <time>2020-05-08T07:14:26Z</time>
      </trkpt>
      <trkpt lat="46.03311" lon="6.24231">
        <ele>749.49</ele>
        <time>2020-05-08T07:14:32Z</time>
      </trkpt>
      <trkpt lat="46.03324" lon="6.24244">
        <ele>749.97</ele>
        <time>2020-05-08T07:14:33Z</time>
      </trkpt>
      <trkpt lat="46.03337" lon="6.24254">
        <ele>750.45</ele>
        <time>2020-05-08T07:14:34Z</time>
      </trkpt>
      <trkpt lat="46.0335" lon="6.24263">
        <ele>750.45</ele>
        <time>2020-05-08T07:14:35Z</time>
      </trkpt>
      <trkpt lat="46.03365" lon="6.24268">
        <ele>750.93</ele>
        <time>2020-05-08T07:14:36Z</time>
      </trkpt>
      <trkpt lat="46.03378" lon="6.24272">
        <ele>750.93</ele>
        <time>2020-05-08T07:14:37Z</time>
      </trkpt>
      <trkpt lat="46.03392" lon="6.2427">
        <ele>750.93</ele>
        <time>2020-05-08T07:14:38Z</time>
      </trkpt>
      <trkpt lat="46.03405" lon="6.24267">
        <ele>751.41</ele>
        <time>2020-05-08T07:14:39Z</time>
      </trkpt>
      <trkpt lat="46.03418" lon="6.24262">
        <ele>751.41</ele>
        <time>2020-05-08T07:14:40Z</time>
      </trkpt>
      <trkpt lat="46.03431" lon="6.24253">
        <ele>751.89</ele>
        <time>2020-05-08T07:14:41Z</time>
      </trkpt>
      <trkpt lat="46.03441" lon="6.24247">
        <ele>752.37</ele>
        <time>2020-05-08T07:14:42Z</time>
      </trkpt>
      <trkpt lat="46.03452" lon="6.24229">
        <ele>752.85</ele>
        <time>2020-05-08T07:14:43Z</time>
      </trkpt>
      <trkpt lat="46.03463" lon="6.24212">
        <ele>753.33</ele>
        <time>2020-05-08T07:14:44Z</time>
      </trkpt>
      <trkpt lat="46.03474" lon="6.24195">
        <ele>753.81</ele>
        <time>2020-05-08T07:14:45Z</time>
      </trkpt>
      <trkpt lat="46.03487" lon="6.24176">
        <ele>754.77</ele>
        <time>2020-05-08T07:14:46Z</time>
      </trkpt>
      <trkpt lat="46.03541" lon="6.24095">
        <ele>758.62</ele>
        <time>2020-05-08T07:14:50Z</time>
      </trkpt>
      <trkpt lat="46.03559" lon="6.24082">
        <ele>759.58</ele>
        <time>2020-05-08T07:14:51Z</time>
      </trkpt>
      <trkpt lat="46.03578" lon="6.24076">
        <ele>760.54</ele>
        <time>2020-05-08T07:14:52Z</time>
      </trkpt>
      <trkpt lat="46.03597" lon="6.24071">
        <ele>761.5</ele>
        <time>2020-05-08T07:14:53Z</time>
      </trkpt>
      <trkpt lat="46.03617" lon="6.24073">
        <ele>762.46</ele>
        <time>2020-05-08T07:14:54Z</time>
      </trkpt>
      <trkpt lat="46.03639" lon="6.24075">
        <ele>762.94</ele>
        <time>2020-05-08T07:14:55Z</time>
      </trkpt>
      <trkpt lat="46.03657" lon="6.24084">
        <ele>764.39</ele>
        <time>2020-05-08T07:14:56Z</time>
      </trkpt>
      <trkpt lat="46.03676" lon="6.24099">
        <ele>765.35</ele>
        <time>2020-05-08T07:14:57Z</time>
      </trkpt>
      <trkpt lat="46.03694" lon="6.24116">
        <ele>766.31</ele>
        <time>2020-05-08T07:14:58Z</time>
      </trkpt>
      <trkpt lat="46.03712" lon="6.24137">
        <ele>767.75</ele>
        <time>2020-05-08T07:14:59Z</time>
      </trkpt>
      <trkpt lat="46.03728" lon="6.24161">
        <ele>768.71</ele>
        <time>2020-05-08T07:15:00Z</time>
      </trkpt>
      <trkpt lat="46.03745" lon="6.24187">
        <ele>770.15</ele>
        <time>2020-05-08T07:15:01Z</time>
      </trkpt>
      <trkpt lat="46.03762" lon="6.24213">
        <ele>771.6</ele>
        <time>2020-05-08T07:15:02Z</time>
      </trkpt>
      <trkpt lat="46.03773" lon="6.24246">
        <ele>773.04</ele>
        <time>2020-05-08T07:15:03Z</time>
      </trkpt>
      <trkpt lat="46.03785" lon="6.24278">
        <ele>774.48</ele>
        <time>2020-05-08T07:15:04Z</time>
      </trkpt>
      <trkpt lat="46.03795" lon="6.24313">
        <ele>775.92</ele>
        <time>2020-05-08T07:15:05Z</time>
      </trkpt>
      <trkpt lat="46.03802" lon="6.24349">
        <ele>777.84</ele>
        <time>2020-05-08T07:15:06Z</time>
      </trkpt>
      <trkpt lat="46.03839" lon="6.24519">
        <ele>786.5</ele>
        <time>2020-05-08T07:15:11Z</time>
      </trkpt>
      <trkpt lat="46.03849" lon="6.24548">
        <ele>787.94</ele>
        <time>2020-05-08T07:15:12Z</time>
      </trkpt>
      <trkpt lat="46.0386" lon="6.24577">
        <ele>789.38</ele>
        <time>2020-05-08T07:15:13Z</time>
      </trkpt>
      <trkpt lat="46.03875" lon="6.24602">
        <ele>790.34</ele>
        <time>2020-05-08T07:15:14Z</time>
      </trkpt>
      <trkpt lat="46.03891" lon="6.24626">
        <ele>791.3</ele>
        <time>2020-05-08T07:15:15Z</time>
      </trkpt>
      <trkpt lat="46.03909" lon="6.24646">
        <ele>792.26</ele>
        <time>2020-05-08T07:15:16Z</time>
      </trkpt>
      <trkpt lat="46.03928" lon="6.24665">
        <ele>792.74</ele>
        <time>2020-05-08T07:15:17Z</time>
      </trkpt>
      <trkpt lat="46.03949" lon="6.24681">
        <ele>793.22</ele>
        <time>2020-05-08T07:15:18Z</time>
      </trkpt>
      <trkpt lat="46.03971" lon="6.24694">
        <ele>793.22</ele>
        <time>2020-05-08T07:15:19Z</time>
      </trkpt>
      <trkpt lat="46.03994" lon="6.24704">
        <ele>793.71</ele>
        <time>2020-05-08T07:15:20Z</time>
      </trkpt>
      <trkpt lat="46.04018" lon="6.24711">
        <ele>793.71</ele>
        <time>2020-05-08T07:15:21Z</time>
      </trkpt>
      <trkpt lat="46.0409" lon="6.2474">
        <ele>792.26</ele>
        <time>2020-05-08T07:15:24Z</time>
      </trkpt>
      <trkpt lat="46.04114" lon="6.24755">
        <ele>791.78</ele>
        <time>2020-05-08T07:15:25Z</time>
      </trkpt>
      <trkpt lat="46.04134" lon="6.24778">
        <ele>790.82</ele>
        <time>2020-05-08T07:15:26Z</time>
      </trkpt>
      <trkpt lat="46.04155" lon="6.24801">
        <ele>789.86</ele>
        <time>2020-05-08T07:15:27Z</time>
      </trkpt>
      <trkpt lat="46.04175" lon="6.24824">
        <ele>788.9</ele>
        <time>2020-05-08T07:15:28Z</time>
      </trkpt>
      <trkpt lat="46.04334" lon="6.25063">
        <ele>788.42</ele>
        <time>2020-05-08T07:15:37Z</time>
      </trkpt>
      <trkpt lat="46.04349" lon="6.25092">
        <ele>789.86</ele>
        <time>2020-05-08T07:15:38Z</time>
      </trkpt>
      <trkpt lat="46.0436" lon="6.25125">
        <ele>790.82</ele>
        <time>2020-05-08T07:15:39Z</time>
      </trkpt>
      <trkpt lat="46.04371" lon="6.25158">
        <ele>792.26</ele>
        <time>2020-05-08T07:15:40Z</time>
      </trkpt>
      <trkpt lat="46.04379" lon="6.25192">
        <ele>793.22</ele>
        <time>2020-05-08T07:15:41Z</time>
      </trkpt>
      <trkpt lat="46.04463" lon="6.25526">
        <ele>802.36</ele>
        <time>2020-05-08T07:15:51Z</time>
      </trkpt>
      <trkpt lat="46.04564" lon="6.25742">
        <ele>803.32</ele>
        <time>2020-05-08T07:15:59Z</time>
      </trkpt>
      <trkpt lat="46.04693" lon="6.26006">
        <ele>801.4</ele>
        <time>2020-05-08T07:16:10Z</time>
      </trkpt>
      <trkpt lat="46.04877" lon="6.26369">
        <ele>792.26</ele>
        <time>2020-05-08T07:16:24Z</time>
      </trkpt>
      <trkpt lat="46.04894" lon="6.2639">
        <ele>791.3</ele>
        <time>2020-05-08T07:16:25Z</time>
      </trkpt>
      <trkpt lat="46.04912" lon="6.26411">
        <ele>789.86</ele>
        <time>2020-05-08T07:16:26Z</time>
      </trkpt>
      <trkpt lat="46.04931" lon="6.26431">
        <ele>788.9</ele>
        <time>2020-05-08T07:16:27Z</time>
      </trkpt>
      <trkpt lat="46.04951" lon="6.26448">
        <ele>787.46</ele>
        <time>2020-05-08T07:16:28Z</time>
      </trkpt>
      <trkpt lat="46.05055" lon="6.26539">
        <ele>780.73</ele>
        <time>2020-05-08T07:16:33Z</time>
      </trkpt>
      <trkpt lat="46.05073" lon="6.26563">
        <ele>779.29</ele>
        <time>2020-05-08T07:16:34Z</time>
      </trkpt>
      <trkpt lat="46.05088" lon="6.2659">
        <ele>777.84</ele>
        <time>2020-05-08T07:16:35Z</time>
      </trkpt>
      <trkpt lat="46.05103" lon="6.26618">
        <ele>776.4</ele>
        <time>2020-05-08T07:16:36Z</time>
      </trkpt>
      <trkpt lat="46.05115" lon="6.26648">
        <ele>775.44</ele>
        <time>2020-05-08T07:16:37Z</time>
      </trkpt>
      <trkpt lat="46.05125" lon="6.2668">
        <ele>774.48</ele>
        <time>2020-05-08T07:16:38Z</time>
      </trkpt>
      <trkpt lat="46.05134" lon="6.26713">
        <ele>773.52</ele>
        <time>2020-05-08T07:16:39Z</time>
      </trkpt>
      <trkpt lat="46.05141" lon="6.26747">
        <ele>772.56</ele>
        <time>2020-05-08T07:16:40Z</time>
      </trkpt>
      <trkpt lat="46.05145" lon="6.26782">
        <ele>771.6</ele>
        <time>2020-05-08T07:16:41Z</time>
      </trkpt>
      <trkpt lat="46.05149" lon="6.26817">
        <ele>771.11</ele>
        <time>2020-05-08T07:16:42Z</time>
      </trkpt>
      <trkpt lat="46.05148" lon="6.26853">
        <ele>770.15</ele>
        <time>2020-05-08T07:16:43Z</time>
      </trkpt>
      <trkpt lat="46.05146" lon="6.26888">
        <ele>769.19</ele>
        <time>2020-05-08T07:16:44Z</time>
      </trkpt>
      <trkpt lat="46.05143" lon="6.26921">
        <ele>768.71</ele>
        <time>2020-05-08T07:16:45Z</time>
      </trkpt>
      <trkpt lat="46.05124" lon="6.27199">
        <ele>763.9</ele>
        <time>2020-05-08T07:16:54Z</time>
      </trkpt>
      <trkpt lat="46.0514" lon="6.2743">
        <ele>758.14</ele>
        <time>2020-05-08T07:17:01Z</time>
      </trkpt>
      <trkpt lat="46.05192" lon="6.27666">
        <ele>752.85</ele>
        <time>2020-05-08T07:17:08Z</time>
      </trkpt>
      <trkpt lat="46.05364" lon="6.28167">
        <ele>746.12</ele>
        <time>2020-05-08T07:17:24Z</time>
      </trkpt>
      <trkpt lat="46.0553" lon="6.28641">
        <ele>736.51</ele>
        <time>2020-05-08T07:17:39Z</time>
      </trkpt>
      <trkpt lat="46.0563" lon="6.28887">
        <ele>728.82</ele>
        <time>2020-05-08T07:17:47Z</time>
      </trkpt>
      <trkpt lat="46.05646" lon="6.28913">
        <ele>727.37</ele>
        <time>2020-05-08T07:17:48Z</time>
      </trkpt>
      <trkpt lat="46.05665" lon="6.28935">
        <ele>725.93</ele>
        <time>2020-05-08T07:17:49Z</time>
      </trkpt>
      <trkpt lat="46.05685" lon="6.28955">
        <ele>724.49</ele>
        <time>2020-05-08T07:17:50Z</time>
      </trkpt>
      <trkpt lat="46.05707" lon="6.2897">
        <ele>723.05</ele>
        <time>2020-05-08T07:17:51Z</time>
      </trkpt>
      <trkpt lat="46.05729" lon="6.28985">
        <ele>721.61</ele>
        <time>2020-05-08T07:17:52Z</time>
      </trkpt>
      <trkpt lat="46.05753" lon="6.28995">
        <ele>720.16</ele>
        <time>2020-05-08T07:17:53Z</time>
      </trkpt>
      <trkpt lat="46.05777" lon="6.29003">
        <ele>719.2</ele>
        <time>2020-05-08T07:17:54Z</time>
      </trkpt>
      <trkpt lat="46.05802" lon="6.29007">
        <ele>718.24</ele>
        <time>2020-05-08T07:17:55Z</time>
      </trkpt>
      <trkpt lat="46.05827" lon="6.29009">
        <ele>716.8</ele>
        <time>2020-05-08T07:17:56Z</time>
      </trkpt>
      <trkpt lat="46.05852" lon="6.29006">
        <ele>715.84</ele>
        <time>2020-05-08T07:17:57Z</time>
      </trkpt>
      <trkpt lat="46.05878" lon="6.29003">
        <ele>714.4</ele>
        <time>2020-05-08T07:17:58Z</time>
      </trkpt>
      <trkpt lat="46.05903" lon="6.28997">
        <ele>712.95</ele>
        <time>2020-05-08T07:17:59Z</time>
      </trkpt>
      <trkpt lat="46.0614" lon="6.28918">
        <ele>699.5</ele>
        <time>2020-05-08T07:18:09Z</time>
      </trkpt>
      <trkpt lat="46.06367" lon="6.28848">
        <ele>686.52</ele>
        <time>2020-05-08T07:18:20Z</time>
      </trkpt>
      <trkpt lat="46.0641" lon="6.2884">
        <ele>683.15</ele>
        <time>2020-05-08T07:18:23Z</time>
      </trkpt>
      <trkpt lat="46.06421" lon="6.28838">
        <ele>682.19</ele>
        <time>2020-05-08T07:18:24Z</time>
      </trkpt>
      <trkpt lat="46.06434" lon="6.28858">
        <ele>680.75</ele>
        <time>2020-05-08T07:18:25Z</time>
      </trkpt>
      <trkpt lat="46.06438" lon="6.28859">
        <ele>680.27</ele>
        <time>2020-05-08T07:18:26Z</time>
      </trkpt>
      <trkpt lat="46.06451" lon="6.28853">
        <ele>680.27</ele>
        <time>2020-05-08T07:18:27Z</time>
      </trkpt>
      <trkpt lat="46.06456" lon="6.28849">
        <ele>679.79</ele>
        <time>2020-05-08T07:18:28Z</time>
      </trkpt>
      <trkpt lat="46.06468" lon="6.28829">
        <ele>679.31</ele>
        <time>2020-05-08T07:18:29Z</time>
      </trkpt>
      <trkpt lat="46.06481" lon="6.28826">
        <ele>678.83</ele>
        <time>2020-05-08T07:18:30Z</time>
      </trkpt>
      <trkpt lat="46.06582" lon="6.28773">
        <ele>673.06</ele>
        <time>2020-05-08T07:18:36Z</time>
      </trkpt>
      <trkpt lat="46.06767" lon="6.28677">
        <ele>662.01</ele>
        <time>2020-05-08T07:18:47Z</time>
      </trkpt>
      <trkpt lat="46.06802" lon="6.28673">
        <ele>660.08</ele>
        <time>2020-05-08T07:18:49Z</time>
      </trkpt>
      <trkpt lat="46.06919" lon="6.28725">
        <ele>652.87</ele>
        <time>2020-05-08T07:18:56Z</time>
      </trkpt>
      <trkpt lat="46.07067" lon="6.28811">
        <ele>644.7</ele>
        <time>2020-05-08T07:19:05Z</time>
      </trkpt>
      <trkpt lat="46.07234" lon="6.28827">
        <ele>636.05</ele>
        <time>2020-05-08T07:19:14Z</time>
      </trkpt>
      <trkpt lat="46.07381" lon="6.28877">
        <ele>627.4</ele>
        <time>2020-05-08T07:19:22Z</time>
      </trkpt>
      <trkpt lat="46.07398" lon="6.28892">
        <ele>626.44</ele>
        <time>2020-05-08T07:19:23Z</time>
      </trkpt>
      <trkpt lat="46.07414" lon="6.2891">
        <ele>624.99</ele>
        <time>2020-05-08T07:19:24Z</time>
      </trkpt>
      <trkpt lat="46.07427" lon="6.28931">
        <ele>624.03</ele>
        <time>2020-05-08T07:19:25Z</time>
      </trkpt>
      <trkpt lat="46.07441" lon="6.28953">
        <ele>623.07</ele>
        <time>2020-05-08T07:19:26Z</time>
      </trkpt>
      <trkpt lat="46.07454" lon="6.28976">
        <ele>622.11</ele>
        <time>2020-05-08T07:19:27Z</time>
      </trkpt>
      <trkpt lat="46.07464" lon="6.29001">
        <ele>621.15</ele>
        <time>2020-05-08T07:19:28Z</time>
      </trkpt>
      <trkpt lat="46.07472" lon="6.29028">
        <ele>620.19</ele>
        <time>2020-05-08T07:19:29Z</time>
      </trkpt>
      <trkpt lat="46.07479" lon="6.29056">
        <ele>619.23</ele>
        <time>2020-05-08T07:19:30Z</time>
      </trkpt>
      <trkpt lat="46.07512" lon="6.2918">
        <ele>614.9</ele>
        <time>2020-05-08T07:19:35Z</time>
      </trkpt>
      <trkpt lat="46.07521" lon="6.29207">
        <ele>613.46</ele>
        <time>2020-05-08T07:19:36Z</time>
      </trkpt>
      <trkpt lat="46.07516" lon="6.29225">
        <ele>612.5</ele>
        <time>2020-05-08T07:19:37Z</time>
      </trkpt>
      <trkpt lat="46.07509" lon="6.29245">
        <ele>611.54</ele>
        <time>2020-05-08T07:19:38Z</time>
      </trkpt>
      <trkpt lat="46.07502" lon="6.29267">
        <ele>610.57</ele>
        <time>2020-05-08T07:19:39Z</time>
      </trkpt>
      <trkpt lat="46.07494" lon="6.29291">
        <ele>609.61</ele>
        <time>2020-05-08T07:19:40Z</time>
      </trkpt>
      <trkpt lat="46.07485" lon="6.29318">
        <ele>609.13</ele>
        <time>2020-05-08T07:19:41Z</time>
      </trkpt>
      <trkpt lat="46.07475" lon="6.29347">
        <ele>608.17</ele>
        <time>2020-05-08T07:19:42Z</time>
      </trkpt>
      <trkpt lat="46.07462" lon="6.29376">
        <ele>606.73</ele>
        <time>2020-05-08T07:19:43Z</time>
      </trkpt>
      <trkpt lat="46.07448" lon="6.29402">
        <ele>605.77</ele>
        <time>2020-05-08T07:19:44Z</time>
      </trkpt>
      <trkpt lat="46.07323" lon="6.29591">
        <ele>599.04</ele>
        <time>2020-05-08T07:19:52Z</time>
      </trkpt>
      <trkpt lat="46.07232" lon="6.29704">
        <ele>595.19</ele>
        <time>2020-05-08T07:19:58Z</time>
      </trkpt>
      <trkpt lat="46.07148" lon="6.29802">
        <ele>590.39</ele>
        <time>2020-05-08T07:20:05Z</time>
      </trkpt>
      <trkpt lat="46.07095" lon="6.2994">
        <ele>586.06</ele>
        <time>2020-05-08T07:20:13Z</time>
      </trkpt>
      <trkpt lat="46.0708" lon="6.30029">
        <ele>584.14</ele>
        <time>2020-05-08T07:20:19Z</time>
      </trkpt>
      <trkpt lat="46.07075" lon="6.3005">
        <ele>584.14</ele>
        <time>2020-05-08T07:20:20Z</time>
      </trkpt>
      <trkpt lat="46.07078" lon="6.30057">
        <ele>584.14</ele>
        <time>2020-05-08T07:20:21Z</time>
      </trkpt>
      <trkpt lat="46.07085" lon="6.30075">
        <ele>584.14</ele>
        <time>2020-05-08T07:20:22Z</time>
      </trkpt>
      <trkpt lat="46.07084" lon="6.30087">
        <ele>583.66</ele>
        <time>2020-05-08T07:20:23Z</time>
      </trkpt>
      <trkpt lat="46.07081" lon="6.30098">
        <ele>583.66</ele>
        <time>2020-05-08T07:20:24Z</time>
      </trkpt>
      <trkpt lat="46.07076" lon="6.30111">
        <ele>583.66</ele>
        <time>2020-05-08T07:20:25Z</time>
      </trkpt>
      <trkpt lat="46.0707" lon="6.30124">
        <ele>583.66</ele>
        <time>2020-05-08T07:20:26Z</time>
      </trkpt>
      <trkpt lat="46.07064" lon="6.30138">
        <ele>583.66</ele>
        <time>2020-05-08T07:20:27Z</time>
      </trkpt>
      <trkpt lat="46.07059" lon="6.30151">
        <ele>583.66</ele>
        <time>2020-05-08T07:20:28Z</time>
      </trkpt>
      <trkpt lat="46.07055" lon="6.30168">
        <ele>583.18</ele>
        <time>2020-05-08T07:20:29Z</time>
      </trkpt>
      <trkpt lat="46.07048" lon="6.302">
        <ele>582.7</ele>
        <time>2020-05-08T07:20:31Z</time>
      </trkpt>
      <trkpt lat="46.07046" lon="6.30213">
        <ele>582.22</ele>
        <time>2020-05-08T07:20:32Z</time>
      </trkpt>
      <trkpt lat="46.07043" lon="6.30224">
        <ele>581.73</ele>
        <time>2020-05-08T07:20:33Z</time>
      </trkpt>
      <trkpt lat="46.07033" lon="6.30229">
        <ele>581.25</ele>
        <time>2020-05-08T07:20:34Z</time>
      </trkpt>
      <trkpt lat="46.07031" lon="6.30238">
        <ele>580.77</ele>
        <time>2020-05-08T07:20:35Z</time>
      </trkpt>
      <trkpt lat="46.07037" lon="6.30252">
        <ele>580.77</ele>
        <time>2020-05-08T07:20:36Z</time>
      </trkpt>
      <trkpt lat="46.07035" lon="6.30265">
        <ele>580.29</ele>
        <time>2020-05-08T07:20:37Z</time>
      </trkpt>
      <trkpt lat="46.07032" lon="6.30281">
        <ele>579.33</ele>
        <time>2020-05-08T07:20:38Z</time>
      </trkpt>
      <trkpt lat="46.07029" lon="6.30299">
        <ele>578.37</ele>
        <time>2020-05-08T07:20:39Z</time>
      </trkpt>
      <trkpt lat="46.07026" lon="6.30319">
        <ele>577.41</ele>
        <time>2020-05-08T07:20:40Z</time>
      </trkpt>
      <trkpt lat="46.07013" lon="6.30408">
        <ele>569.72</ele>
        <time>2020-05-08T07:20:45Z</time>
      </trkpt>
      <trkpt lat="46.0701" lon="6.30425">
        <ele>568.28</ele>
        <time>2020-05-08T07:20:46Z</time>
      </trkpt>
      <trkpt lat="46.06989" lon="6.30522">
        <ele>561.07</ele>
        <time>2020-05-08T07:20:52Z</time>
      </trkpt>
      <trkpt lat="46.06989" lon="6.30542">
        <ele>560.11</ele>
        <time>2020-05-08T07:20:53Z</time>
      </trkpt>
      <trkpt lat="46.06984" lon="6.3056">
        <ele>559.14</ele>
        <time>2020-05-08T07:20:54Z</time>
      </trkpt>
      <trkpt lat="46.06981" lon="6.30577">
        <ele>558.18</ele>
        <time>2020-05-08T07:20:55Z</time>
      </trkpt>
      <trkpt lat="46.06978" lon="6.30595">
        <ele>557.7</ele>
        <time>2020-05-08T07:20:56Z</time>
      </trkpt>
      <trkpt lat="46.06941" lon="6.30745">
        <ele>554.34</ele>
        <time>2020-05-08T07:21:05Z</time>
      </trkpt>
      <trkpt lat="46.06893" lon="6.30824">
        <ele>554.34</ele>
        <time>2020-05-08T07:21:11Z</time>
      </trkpt>
      <trkpt lat="46.06824" lon="6.30912">
        <ele>554.82</ele>
        <time>2020-05-08T07:21:20Z</time>
      </trkpt>
      <trkpt lat="46.06819" lon="6.3092">
        <ele>554.82</ele>
        <time>2020-05-08T07:21:21Z</time>
      </trkpt>
      <trkpt lat="46.06811" lon="6.30938">
        <ele>554.34</ele>
        <time>2020-05-08T07:21:23Z</time>
      </trkpt>
      <trkpt lat="46.06778" lon="6.3104">
        <ele>548.09</ele>
        <time>2020-05-08T07:21:30Z</time>
      </trkpt>
      <trkpt lat="46.06737" lon="6.31181">
        <ele>543.28</ele>
        <time>2020-05-08T07:21:40Z</time>
      </trkpt>
      <trkpt lat="46.06732" lon="6.31191">
        <ele>542.8</ele>
        <time>2020-05-08T07:21:41Z</time>
      </trkpt>
      <trkpt lat="46.06722" lon="6.31214">
        <ele>541.36</ele>
        <time>2020-05-08T07:21:47Z</time>
      </trkpt>
      <trkpt lat="46.06718" lon="6.31253">
        <ele>540.4</ele>
        <time>2020-05-08T07:21:49Z</time>
      </trkpt>
      <trkpt lat="46.06718" lon="6.31253">
        <ele>539.92</ele>
        <time>2020-05-08T07:21:50Z</time>
      </trkpt>
      <trkpt lat="46.0672" lon="6.31266">
        <ele>539.44</ele>
        <time>2020-05-08T07:21:53Z</time>
      </trkpt>
      <trkpt lat="46.0672" lon="6.31268">
        <ele>539.44</ele>
        <time>2020-05-08T07:21:54Z</time>
      </trkpt>
      <trkpt lat="46.0673" lon="6.31275">
        <ele>539.44</ele>
        <time>2020-05-08T07:21:56Z</time>
      </trkpt>
      <trkpt lat="46.06734" lon="6.31284">
        <ele>539.44</ele>
        <time>2020-05-08T07:21:57Z</time>
      </trkpt>
      <trkpt lat="46.06738" lon="6.31295">
        <ele>539.44</ele>
        <time>2020-05-08T07:21:58Z</time>
      </trkpt>
      <trkpt lat="46.06742" lon="6.31308">
        <ele>538.96</ele>
        <time>2020-05-08T07:21:59Z</time>
      </trkpt>
      <trkpt lat="46.06746" lon="6.31322">
        <ele>538.96</ele>
        <time>2020-05-08T07:22:00Z</time>
      </trkpt>
      <trkpt lat="46.0675" lon="6.31334">
        <ele>538.48</ele>
        <time>2020-05-08T07:22:01Z</time>
      </trkpt>
      <trkpt lat="46.06751" lon="6.31352">
        <ele>537.51</ele>
        <time>2020-05-08T07:22:02Z</time>
      </trkpt>
      <trkpt lat="46.06751" lon="6.31367">
        <ele>536.55</ele>
        <time>2020-05-08T07:22:03Z</time>
      </trkpt>
      <trkpt lat="46.06752" lon="6.31381">
        <ele>536.55</ele>
        <time>2020-05-08T07:22:04Z</time>
      </trkpt>
      <trkpt lat="46.06757" lon="6.31394">
        <ele>536.07</ele>
        <time>2020-05-08T07:22:05Z</time>
      </trkpt>
      <trkpt lat="46.06763" lon="6.31407">
        <ele>535.59</ele>
        <time>2020-05-08T07:22:06Z</time>
      </trkpt>
      <trkpt lat="46.0677" lon="6.31421">
        <ele>535.11</ele>
        <time>2020-05-08T07:22:07Z</time>
      </trkpt>
      <trkpt lat="46.06798" lon="6.31499">
        <ele>532.71</ele>
        <time>2020-05-08T07:22:12Z</time>
      </trkpt>
      <trkpt lat="46.06853" lon="6.31664">
        <ele>525.5</ele>
        <time>2020-05-08T07:22:22Z</time>
      </trkpt>
      <trkpt lat="46.06916" lon="6.31875">
        <ele>513.96</ele>
        <time>2020-05-08T07:22:34Z</time>
      </trkpt>
      <trkpt lat="46.06983" lon="6.3209">
        <ele>511.56</ele>
        <time>2020-05-08T07:22:46Z</time>
      </trkpt>
      <trkpt lat="46.0699" lon="6.32101">
        <ele>511.08</ele>
        <time>2020-05-08T07:22:47Z</time>
      </trkpt>
      <trkpt lat="46.06997" lon="6.32107">
        <ele>511.08</ele>
        <time>2020-05-08T07:22:48Z</time>
      </trkpt>
      <trkpt lat="46.07006" lon="6.3211">
        <ele>511.08</ele>
        <time>2020-05-08T07:22:49Z</time>
      </trkpt>
      <trkpt lat="46.07013" lon="6.32113">
        <ele>511.08</ele>
        <time>2020-05-08T07:22:50Z</time>
      </trkpt>
      <trkpt lat="46.07017" lon="6.32115">
        <ele>511.56</ele>
        <time>2020-05-08T07:22:51Z</time>
      </trkpt>
      <trkpt lat="46.07019" lon="6.32116">
        <ele>511.56</ele>
        <time>2020-05-08T07:22:52Z</time>
      </trkpt>
      <trkpt lat="46.07027" lon="6.32124">
        <ele>511.56</ele>
        <time>2020-05-08T07:22:53Z</time>
      </trkpt>
      <trkpt lat="46.07026" lon="6.3213">
        <ele>511.56</ele>
        <time>2020-05-08T07:22:54Z</time>
      </trkpt>
      <trkpt lat="46.07026" lon="6.32141">
        <ele>511.56</ele>
        <time>2020-05-08T07:22:55Z</time>
      </trkpt>
      <trkpt lat="46.07025" lon="6.32156">
        <ele>511.08</ele>
        <time>2020-05-08T07:22:56Z</time>
      </trkpt>
      <trkpt lat="46.07025" lon="6.32176">
        <ele>511.08</ele>
        <time>2020-05-08T07:22:57Z</time>
      </trkpt>
      <trkpt lat="46.07026" lon="6.32198">
        <ele>510.6</ele>
        <time>2020-05-08T07:22:58Z</time>
      </trkpt>
      <trkpt lat="46.0703" lon="6.32222">
        <ele>510.12</ele>
        <time>2020-05-08T07:22:59Z</time>
      </trkpt>
      <trkpt lat="46.07034" lon="6.32249">
        <ele>509.64</ele>
        <time>2020-05-08T07:23:00Z</time>
      </trkpt>
      <trkpt lat="46.0704" lon="6.32277">
        <ele>509.16</ele>
        <time>2020-05-08T07:23:01Z</time>
      </trkpt>
      <trkpt lat="46.07086" lon="6.32458">
        <ele>502.43</ele>
        <time>2020-05-08T07:23:09Z</time>
      </trkpt>
      <trkpt lat="46.07106" lon="6.32613">
        <ele>498.1</ele>
        <time>2020-05-08T07:23:18Z</time>
      </trkpt>
      <trkpt lat="46.07113" lon="6.32722">
        <ele>495.22</ele>
        <time>2020-05-08T07:23:25Z</time>
      </trkpt>
      <trkpt lat="46.07114" lon="6.32734">
        <ele>494.74</ele>
        <time>2020-05-08T07:23:26Z</time>
      </trkpt>
      <trkpt lat="46.07108" lon="6.3275">
        <ele>494.26</ele>
        <time>2020-05-08T07:23:27Z</time>
      </trkpt>
      <trkpt lat="46.07108" lon="6.32757">
        <ele>493.77</ele>
        <time>2020-05-08T07:23:28Z</time>
      </trkpt>
      <trkpt lat="46.07109" lon="6.32768">
        <ele>493.29</ele>
        <time>2020-05-08T07:23:29Z</time>
      </trkpt>
      <trkpt lat="46.07113" lon="6.32776">
        <ele>492.81</ele>
        <time>2020-05-08T07:23:30Z</time>
      </trkpt>
      <trkpt lat="46.0712" lon="6.32782">
        <ele>492.33</ele>
        <time>2020-05-08T07:23:31Z</time>
      </trkpt>
      <trkpt lat="46.07127" lon="6.32781">
        <ele>492.33</ele>
        <time>2020-05-08T07:23:32Z</time>
      </trkpt>
      <trkpt lat="46.07135" lon="6.32777">
        <ele>492.81</ele>
        <time>2020-05-08T07:23:33Z</time>
      </trkpt>
      <trkpt lat="46.07142" lon="6.32759">
        <ele>492.81</ele>
        <time>2020-05-08T07:23:34Z</time>
      </trkpt>
      <trkpt lat="46.07204" lon="6.32682">
        <ele>488.49</ele>
        <time>2020-05-08T07:23:40Z</time>
      </trkpt>
      <trkpt lat="46.07218" lon="6.32661">
        <ele>487.53</ele>
        <time>2020-05-08T07:23:42Z</time>
      </trkpt>
      <trkpt lat="46.07223" lon="6.32654">
        <ele>486.56</ele>
        <time>2020-05-08T07:23:43Z</time>
      </trkpt>
      <trkpt lat="46.07226" lon="6.32649">
        <ele>486.08</ele>
        <time>2020-05-08T07:23:44Z</time>
      </trkpt>
      <trkpt lat="46.07235" lon="6.32644">
        <ele>485.6</ele>
        <time>2020-05-08T07:23:45Z</time>
      </trkpt>
      <trkpt lat="46.07234" lon="6.32636">
        <ele>485.12</ele>
        <time>2020-05-08T07:23:46Z</time>
      </trkpt>
      <trkpt lat="46.07224" lon="6.32634">
        <ele>484.64</ele>
        <time>2020-05-08T07:23:47Z</time>
      </trkpt>
      <trkpt lat="46.0722" lon="6.32628">
        <ele>484.16</ele>
        <time>2020-05-08T07:23:48Z</time>
      </trkpt>
      <trkpt lat="46.07213" lon="6.32618">
        <ele>484.16</ele>
        <time>2020-05-08T07:23:49Z</time>
      </trkpt>
      <trkpt lat="46.07206" lon="6.32605">
        <ele>484.64</ele>
        <time>2020-05-08T07:23:50Z</time>
      </trkpt>
      <trkpt lat="46.07201" lon="6.32592">
        <ele>485.6</ele>
        <time>2020-05-08T07:23:51Z</time>
      </trkpt>
      <trkpt lat="46.07196" lon="6.3258">
        <ele>486.56</ele>
        <time>2020-05-08T07:23:52Z</time>
      </trkpt>
      <trkpt lat="46.07194" lon="6.32566">
        <ele>487.53</ele>
        <time>2020-05-08T07:23:53Z</time>
      </trkpt>
      <trkpt lat="46.07193" lon="6.32553">
        <ele>488.49</ele>
        <time>2020-05-08T07:23:54Z</time>
      </trkpt>
      <trkpt lat="46.07187" lon="6.32515">
        <ele>492.33</ele>
        <time>2020-05-08T07:24:00Z</time>
      </trkpt>
      <trkpt lat="46.07186" lon="6.3251">
        <ele>492.81</ele>
        <time>2020-05-08T07:24:01Z</time>
      </trkpt>
      <trkpt lat="46.07176" lon="6.32503">
        <ele>493.29</ele>
        <time>2020-05-08T07:24:02Z</time>
      </trkpt>
      <trkpt lat="46.07175" lon="6.32507">
        <ele>493.29</ele>
        <time>2020-05-08T07:24:03Z</time>
      </trkpt>
      <trkpt lat="46.07173" lon="6.32511">
        <ele>493.77</ele>
        <time>2020-05-08T07:24:04Z</time>
      </trkpt>
      <trkpt lat="46.07171" lon="6.32518">
        <ele>494.26</ele>
        <time>2020-05-08T07:24:05Z</time>
      </trkpt>
      <trkpt lat="46.07167" lon="6.32526">
        <ele>494.26</ele>
        <time>2020-05-08T07:24:06Z</time>
      </trkpt>
      <trkpt lat="46.07164" lon="6.32534">
        <ele>494.74</ele>
        <time>2020-05-08T07:24:07Z</time>
      </trkpt>
      <trkpt lat="46.07157" lon="6.32552">
        <ele>496.18</ele>
        <time>2020-05-08T07:24:10Z</time>
      </trkpt>
      <trkpt lat="46.07148" lon="6.32557">
        <ele>497.14</ele>
        <time>2020-05-08T07:24:12Z</time>
      </trkpt>
      <trkpt lat="46.07146" lon="6.32555">
        <ele>497.14</ele>
        <time>2020-05-08T07:24:13Z</time>
      </trkpt>
      <trkpt lat="46.07144" lon="6.32554">
        <ele>497.14</ele>
        <time>2020-05-08T07:24:14Z</time>
      </trkpt>
      <trkpt lat="46.07143" lon="6.32552">
        <ele>497.62</ele>
        <time>2020-05-08T07:24:15Z</time>
      </trkpt>
      <trkpt lat="46.0714" lon="6.3255">
        <ele>497.62</ele>
        <time>2020-05-08T07:24:16Z</time>
      </trkpt>
      <trkpt lat="46.07138" lon="6.32548">
        <ele>498.1</ele>
        <time>2020-05-08T07:24:17Z</time>
      </trkpt>
      <trkpt lat="46.07136" lon="6.32546">
        <ele>498.1</ele>
        <time>2020-05-08T07:24:18Z</time>
      </trkpt>
      <trkpt lat="46.07133" lon="6.32544">
        <ele>497.62</ele>
        <time>2020-05-08T07:24:19Z</time>
      </trkpt>
      <trkpt lat="46.07131" lon="6.32542">
        <ele>497.14</ele>
        <time>2020-05-08T07:24:20Z</time>
      </trkpt>
      <trkpt lat="46.07129" lon="6.3254">
        <ele>497.14</ele>
        <time>2020-05-08T07:24:21Z</time>
      </trkpt>
      <trkpt lat="46.07127" lon="6.32538">
        <ele>497.14</ele>
        <time>2020-05-08T07:24:22Z</time>
      </trkpt>
      <trkpt lat="46.07125" lon="6.32537">
        <ele>497.14</ele>
        <time>2020-05-08T07:24:23Z</time>
      </trkpt>
      <trkpt lat="46.07121" lon="6.32534">
        <ele>498.1</ele>
        <time>2020-05-08T07:24:32Z</time>
      </trkpt>
      <trkpt lat="46.07121" lon="6.32534">
        <ele>498.58</ele>
        <time>2020-05-08T07:24:38Z</time>
      </trkpt>
      <trkpt lat="46.07121" lon="6.32537">
        <ele>499.06</ele>
        <time>2020-05-08T07:24:39Z</time>
      </trkpt>
      <trkpt lat="46.07122" lon="6.32543">
        <ele>499.54</ele>
        <time>2020-05-08T07:24:40Z</time>
      </trkpt>
      <trkpt lat="46.07129" lon="6.3254">
        <ele>500.02</ele>
        <time>2020-05-08T07:24:41Z</time>
      </trkpt>
      <trkpt lat="46.07133" lon="6.32544">
        <ele>500.5</ele>
        <time>2020-05-08T07:24:42Z</time>
      </trkpt>
      <trkpt lat="46.07138" lon="6.32548">
        <ele>500.5</ele>
        <time>2020-05-08T07:24:43Z</time>
      </trkpt>
      <trkpt lat="46.07142" lon="6.32552">
        <ele>500.5</ele>
        <time>2020-05-08T07:24:44Z</time>
      </trkpt>
      <trkpt lat="46.07145" lon="6.32555">
        <ele>500.5</ele>
        <time>2020-05-08T07:24:45Z</time>
      </trkpt>
      <trkpt lat="46.07147" lon="6.32556">
        <ele>500.5</ele>
        <time>2020-05-08T07:24:46Z</time>
      </trkpt>
      <trkpt lat="46.0715" lon="6.32558">
        <ele>500.5</ele>
        <time>2020-05-08T07:24:47Z</time>
      </trkpt>
      <trkpt lat="46.07154" lon="6.32561">
        <ele>500.02</ele>
        <time>2020-05-08T07:24:48Z</time>
      </trkpt>
      <trkpt lat="46.07156" lon="6.32555">
        <ele>500.02</ele>
        <time>2020-05-08T07:24:49Z</time>
      </trkpt>
      <trkpt lat="46.07159" lon="6.32547">
        <ele>499.06</ele>
        <time>2020-05-08T07:24:50Z</time>
      </trkpt>
      <trkpt lat="46.07162" lon="6.3254">
        <ele>499.06</ele>
        <time>2020-05-08T07:24:51Z</time>
      </trkpt>
      <trkpt lat="46.07173" lon="6.32511">
        <ele>498.1</ele>
        <time>2020-05-08T07:25:00Z</time>
      </trkpt>
      <trkpt lat="46.07185" lon="6.32508">
        <ele>498.58</ele>
        <time>2020-05-08T07:25:03Z</time>
      </trkpt>
      <trkpt lat="46.07186" lon="6.3251">
        <ele>498.58</ele>
        <time>2020-05-08T07:25:04Z</time>
      </trkpt>
      <trkpt lat="46.07187" lon="6.32515">
        <ele>498.58</ele>
        <time>2020-05-08T07:25:05Z</time>
      </trkpt>
      <trkpt lat="46.07189" lon="6.32523">
        <ele>498.58</ele>
        <time>2020-05-08T07:25:06Z</time>
      </trkpt>
      <trkpt lat="46.07191" lon="6.32536">
        <ele>498.58</ele>
        <time>2020-05-08T07:25:07Z</time>
      </trkpt>
      <trkpt lat="46.07192" lon="6.3255">
        <ele>498.1</ele>
        <time>2020-05-08T07:25:08Z</time>
      </trkpt>
      <trkpt lat="46.07194" lon="6.32563">
        <ele>497.62</ele>
        <time>2020-05-08T07:25:09Z</time>
      </trkpt>
      <trkpt lat="46.07195" lon="6.32573">
        <ele>497.62</ele>
        <time>2020-05-08T07:25:10Z</time>
      </trkpt>
      <trkpt lat="46.07196" lon="6.32581">
        <ele>497.14</ele>
        <time>2020-05-08T07:25:11Z</time>
      </trkpt>
      <trkpt lat="46.07198" lon="6.32587">
        <ele>496.66</ele>
        <time>2020-05-08T07:25:12Z</time>
      </trkpt>
      <trkpt lat="46.07201" lon="6.32593">
        <ele>496.66</ele>
        <time>2020-05-08T07:25:13Z</time>
      </trkpt>
      <trkpt lat="46.07207" lon="6.32607">
        <ele>496.18</ele>
        <time>2020-05-08T07:25:15Z</time>
      </trkpt>
      <trkpt lat="46.0722" lon="6.32628">
        <ele>495.22</ele>
        <time>2020-05-08T07:25:18Z</time>
      </trkpt>
      <trkpt lat="46.07225" lon="6.3264">
        <ele>494.26</ele>
        <time>2020-05-08T07:25:19Z</time>
      </trkpt>
      <trkpt lat="46.0722" lon="6.32658">
        <ele>493.77</ele>
        <time>2020-05-08T07:25:20Z</time>
      </trkpt>
      <trkpt lat="46.07216" lon="6.32665">
        <ele>493.29</ele>
        <time>2020-05-08T07:25:21Z</time>
      </trkpt>
      <trkpt lat="46.0721" lon="6.32673">
        <ele>492.81</ele>
        <time>2020-05-08T07:25:22Z</time>
      </trkpt>
      <trkpt lat="46.07204" lon="6.32681">
        <ele>492.81</ele>
        <time>2020-05-08T07:25:23Z</time>
      </trkpt>
      <trkpt lat="46.07198" lon="6.32691">
        <ele>492.81</ele>
        <time>2020-05-08T07:25:24Z</time>
      </trkpt>
      <trkpt lat="46.0716" lon="6.32745">
        <ele>495.7</ele>
        <time>2020-05-08T07:25:31Z</time>
      </trkpt>
      <trkpt lat="46.07155" lon="6.3275">
        <ele>495.7</ele>
        <time>2020-05-08T07:25:32Z</time>
      </trkpt>
      <trkpt lat="46.07147" lon="6.32757">
        <ele>496.18</ele>
        <time>2020-05-08T07:25:33Z</time>
      </trkpt>
      <trkpt lat="46.07144" lon="6.32758">
        <ele>496.18</ele>
        <time>2020-05-08T07:25:34Z</time>
      </trkpt>
      <trkpt lat="46.07136" lon="6.3275">
        <ele>496.66</ele>
        <time>2020-05-08T07:25:35Z</time>
      </trkpt>
      <trkpt lat="46.07131" lon="6.32746">
        <ele>497.14</ele>
        <time>2020-05-08T07:25:36Z</time>
      </trkpt>
      <trkpt lat="46.07125" lon="6.32738">
        <ele>497.14</ele>
        <time>2020-05-08T07:25:37Z</time>
      </trkpt>
      <trkpt lat="46.07123" lon="6.32726">
        <ele>497.14</ele>
        <time>2020-05-08T07:25:38Z</time>
      </trkpt>
      <trkpt lat="46.07122" lon="6.32711">
        <ele>497.62</ele>
        <time>2020-05-08T07:25:39Z</time>
      </trkpt>
      <trkpt lat="46.0712" lon="6.32694">
        <ele>497.62</ele>
        <time>2020-05-08T07:25:40Z</time>
      </trkpt>
      <trkpt lat="46.07118" lon="6.32677">
        <ele>498.1</ele>
        <time>2020-05-08T07:25:41Z</time>
      </trkpt>
      <trkpt lat="46.07084" lon="6.32444">
        <ele>504.35</ele>
        <time>2020-05-08T07:25:53Z</time>
      </trkpt>
      <trkpt lat="46.07044" lon="6.32292">
        <ele>512.04</ele>
        <time>2020-05-08T07:26:01Z</time>
      </trkpt>
      <trkpt lat="46.07025" lon="6.3217">
        <ele>516.37</ele>
        <time>2020-05-08T07:26:08Z</time>
      </trkpt>
      <trkpt lat="46.07025" lon="6.32157">
        <ele>516.85</ele>
        <time>2020-05-08T07:26:09Z</time>
      </trkpt>
      <trkpt lat="46.07026" lon="6.32144">
        <ele>517.33</ele>
        <time>2020-05-08T07:26:10Z</time>
      </trkpt>
      <trkpt lat="46.07027" lon="6.32119">
        <ele>517.81</ele>
        <time>2020-05-08T07:26:12Z</time>
      </trkpt>
      <trkpt lat="46.07027" lon="6.32109">
        <ele>518.29</ele>
        <time>2020-05-08T07:26:13Z</time>
      </trkpt>
      <trkpt lat="46.07018" lon="6.321">
        <ele>518.77</ele>
        <time>2020-05-08T07:26:14Z</time>
      </trkpt>
      <trkpt lat="46.07011" lon="6.32097">
        <ele>519.25</ele>
        <time>2020-05-08T07:26:15Z</time>
      </trkpt>
      <trkpt lat="46.07003" lon="6.32095">
        <ele>519.25</ele>
        <time>2020-05-08T07:26:16Z</time>
      </trkpt>
      <trkpt lat="46.06996" lon="6.32093">
        <ele>519.73</ele>
        <time>2020-05-08T07:26:17Z</time>
      </trkpt>
      <trkpt lat="46.06989" lon="6.3209">
        <ele>520.21</ele>
        <time>2020-05-08T07:26:18Z</time>
      </trkpt>
      <trkpt lat="46.06981" lon="6.32086">
        <ele>520.21</ele>
        <time>2020-05-08T07:26:19Z</time>
      </trkpt>
      <trkpt lat="46.06978" lon="6.32076">
        <ele>520.69</ele>
        <time>2020-05-08T07:26:20Z</time>
      </trkpt>
      <trkpt lat="46.06975" lon="6.32066">
        <ele>520.69</ele>
        <time>2020-05-08T07:26:21Z</time>
      </trkpt>
      <trkpt lat="46.06972" lon="6.32056">
        <ele>520.69</ele>
        <time>2020-05-08T07:26:22Z</time>
      </trkpt>
      <trkpt lat="46.06931" lon="6.31922">
        <ele>521.65</ele>
        <time>2020-05-08T07:26:32Z</time>
      </trkpt>
      <trkpt lat="46.06925" lon="6.31902">
        <ele>521.65</ele>
        <time>2020-05-08T07:26:33Z</time>
      </trkpt>
      <trkpt lat="46.06872" lon="6.31731">
        <ele>526.46</ele>
        <time>2020-05-08T07:26:42Z</time>
      </trkpt>
      <trkpt lat="46.06807" lon="6.31525">
        <ele>536.55</ele>
        <time>2020-05-08T07:26:54Z</time>
      </trkpt>
      <trkpt lat="46.06788" lon="6.31466">
        <ele>539.44</ele>
        <time>2020-05-08T07:26:58Z</time>
      </trkpt>
      <trkpt lat="46.06783" lon="6.31451">
        <ele>540.4</ele>
        <time>2020-05-08T07:26:59Z</time>
      </trkpt>
      <trkpt lat="46.06761" lon="6.31402">
        <ele>544.72</ele>
        <time>2020-05-08T07:27:03Z</time>
      </trkpt>
      <trkpt lat="46.06756" lon="6.31392">
        <ele>545.69</ele>
        <time>2020-05-08T07:27:04Z</time>
      </trkpt>
      <trkpt lat="46.06752" lon="6.31383">
        <ele>546.17</ele>
        <time>2020-05-08T07:27:05Z</time>
      </trkpt>
      <trkpt lat="46.06751" lon="6.31369">
        <ele>547.13</ele>
        <time>2020-05-08T07:27:06Z</time>
      </trkpt>
      <trkpt lat="46.06751" lon="6.31355">
        <ele>547.61</ele>
        <time>2020-05-08T07:27:07Z</time>
      </trkpt>
      <trkpt lat="46.0675" lon="6.31341">
        <ele>548.09</ele>
        <time>2020-05-08T07:27:08Z</time>
      </trkpt>
      <trkpt lat="46.06748" lon="6.31329">
        <ele>549.05</ele>
        <time>2020-05-08T07:27:09Z</time>
      </trkpt>
      <trkpt lat="46.06745" lon="6.31318">
        <ele>549.53</ele>
        <time>2020-05-08T07:27:10Z</time>
      </trkpt>
      <trkpt lat="46.06743" lon="6.31309">
        <ele>550.49</ele>
        <time>2020-05-08T07:27:11Z</time>
      </trkpt>
      <trkpt lat="46.06732" lon="6.31279">
        <ele>553.38</ele>
        <time>2020-05-08T07:27:15Z</time>
      </trkpt>
      <trkpt lat="46.06734" lon="6.31256">
        <ele>555.3</ele>
        <time>2020-05-08T07:27:17Z</time>
      </trkpt>
      <trkpt lat="46.06725" lon="6.3124">
        <ele>556.74</ele>
        <time>2020-05-08T07:27:19Z</time>
      </trkpt>
      <trkpt lat="46.06724" lon="6.3123">
        <ele>557.22</ele>
        <time>2020-05-08T07:27:20Z</time>
      </trkpt>
      <trkpt lat="46.06722" lon="6.31214">
        <ele>557.7</ele>
        <time>2020-05-08T07:27:21Z</time>
      </trkpt>
      <trkpt lat="46.06717" lon="6.31207">
        <ele>558.18</ele>
        <time>2020-05-08T07:27:22Z</time>
      </trkpt>
      <trkpt lat="46.06711" lon="6.31199">
        <ele>558.66</ele>
        <time>2020-05-08T07:27:23Z</time>
      </trkpt>
      <trkpt lat="46.06706" lon="6.31192">
        <ele>558.66</ele>
        <time>2020-05-08T07:27:24Z</time>
      </trkpt>
      <trkpt lat="46.06659" lon="6.3114">
        <ele>559.14</ele>
        <time>2020-05-08T07:27:31Z</time>
      </trkpt>
      <trkpt lat="46.06655" lon="6.31138">
        <ele>559.14</ele>
        <time>2020-05-08T07:27:32Z</time>
      </trkpt>
      <trkpt lat="46.06654" lon="6.31137">
        <ele>559.14</ele>
        <time>2020-05-08T07:27:33Z</time>
      </trkpt>
      <trkpt lat="46.06652" lon="6.31136">
        <ele>559.14</ele>
        <time>2020-05-08T07:27:34Z</time>
      </trkpt>
      <trkpt lat="46.06638" lon="6.31126">
        <ele>558.66</ele>
        <time>2020-05-08T07:27:39Z</time>
      </trkpt>
      <trkpt lat="46.06629" lon="6.3112">
        <ele>558.66</ele>
        <time>2020-05-08T07:27:40Z</time>
      </trkpt>
      <trkpt lat="46.0662" lon="6.31113">
        <ele>559.14</ele>
        <time>2020-05-08T07:27:41Z</time>
      </trkpt>
      <trkpt lat="46.06612" lon="6.31108">
        <ele>558.66</ele>
        <time>2020-05-08T07:27:42Z</time>
      </trkpt>
      <trkpt lat="46.06606" lon="6.31103">
        <ele>558.66</ele>
        <time>2020-05-08T07:27:43Z</time>
      </trkpt>
      <trkpt lat="46.06598" lon="6.31098">
        <ele>558.18</ele>
        <time>2020-05-08T07:27:44Z</time>
      </trkpt>
      <trkpt lat="46.06593" lon="6.31097">
        <ele>558.18</ele>
        <time>2020-05-08T07:27:45Z</time>
      </trkpt>
      <trkpt lat="46.06586" lon="6.31095">
        <ele>557.7</ele>
        <time>2020-05-08T07:27:47Z</time>
      </trkpt>
      <trkpt lat="46.06582" lon="6.31094">
        <ele>557.7</ele>
        <time>2020-05-08T07:27:48Z</time>
      </trkpt>
      <trkpt lat="46.06578" lon="6.31093">
        <ele>557.7</ele>
        <time>2020-05-08T07:27:49Z</time>
      </trkpt>
      <trkpt lat="46.06564" lon="6.31095">
        <ele>557.7</ele>
        <time>2020-05-08T07:27:50Z</time>
      </trkpt>
      <trkpt lat="46.06561" lon="6.3108">
        <ele>557.22</ele>
        <time>2020-05-08T07:27:51Z</time>
      </trkpt>
      <trkpt lat="46.06559" lon="6.31065">
        <ele>557.22</ele>
        <time>2020-05-08T07:27:52Z</time>
      </trkpt>
      <trkpt lat="46.06555" lon="6.31047">
        <ele>556.26</ele>
        <time>2020-05-08T07:27:53Z</time>
      </trkpt>
      <trkpt lat="46.06606" lon="6.31027">
        <ele>555.78</ele>
        <time>2020-05-08T07:27:54Z</time>
      </trkpt>
      <trkpt lat="46.0661" lon="6.31009">
        <ele>555.78</ele>
        <time>2020-05-08T07:27:55Z</time>
      </trkpt>
      <trkpt lat="46.0662" lon="6.30963">
        <ele>556.26</ele>
        <time>2020-05-08T07:27:57Z</time>
      </trkpt>
      <trkpt lat="46.06623" lon="6.30949">
        <ele>557.22</ele>
        <time>2020-05-08T07:27:58Z</time>
      </trkpt>
      <trkpt lat="46.0663" lon="6.30918">
        <ele>557.22</ele>
        <time>2020-05-08T07:27:59Z</time>
      </trkpt>
      <trkpt lat="46.06638" lon="6.30906">
        <ele>557.7</ele>
        <time>2020-05-08T07:28:00Z</time>
      </trkpt>
      <trkpt lat="46.06649" lon="6.30911">
        <ele>559.14</ele>
        <time>2020-05-08T07:28:01Z</time>
      </trkpt>
      <trkpt lat="46.06666" lon="6.30907">
        <ele>561.55</ele>
        <time>2020-05-08T07:28:03Z</time>
      </trkpt>
      <trkpt lat="46.06674" lon="6.30905">
        <ele>563.47</ele>
        <time>2020-05-08T07:28:04Z</time>
      </trkpt>
      <trkpt lat="46.06681" lon="6.30903">
        <ele>566.35</ele>
        <time>2020-05-08T07:28:05Z</time>
      </trkpt>
      <trkpt lat="46.06692" lon="6.30901">
        <ele>569.24</ele>
        <time>2020-05-08T07:28:06Z</time>
      </trkpt>
      <trkpt lat="46.06697" lon="6.30894">
        <ele>571.64</ele>
        <time>2020-05-08T07:28:07Z</time>
      </trkpt>
      <trkpt lat="46.06701" lon="6.30886">
        <ele>573.56</ele>
        <time>2020-05-08T07:28:08Z</time>
      </trkpt>
      <trkpt lat="46.06712" lon="6.3087">
        <ele>577.41</ele>
        <time>2020-05-08T07:28:10Z</time>
      </trkpt>
      <trkpt lat="46.06747" lon="6.30815">
        <ele>581.73</ele>
        <time>2020-05-08T07:28:16Z</time>
      </trkpt>
      <trkpt lat="46.0675" lon="6.30811">
        <ele>582.22</ele>
        <time>2020-05-08T07:28:18Z</time>
      </trkpt>
      <trkpt lat="46.0675" lon="6.30811">
        <ele>583.18</ele>
        <time>2020-05-08T07:28:32Z</time>
      </trkpt>
    </trkseg>
  </trk>
</gpx>